Time;durP1;ratioP1;P1;durP2;ratioP2;P2;SDS_P1;SDS_P2;PMS_P1;PMS_P2;Temp;Humidity;BMP_temperature;BMP_pressure;BME280_temperature;BME280_humidity;BME280_pressure;Samples;Min_cycle;Max_cycle;Signal;HPM_P1;HPM_P2
2021/06/08 00:02:04;;;;;;;5.40;3.58;;;16.20;88.40;;;;;;5072955;28;20043;-80
2021/06/08 00:04:30;;;;;;;4.05;3.65;;;16.20;88.90;;;;;;5074560;28;20036;-80
2021/06/08 00:06:55;;;;;;;4.15;3.63;;;16.20;88.80;;;;;;5061606;28;20043;-81
2021/06/08 00:09:21;;;;;;;4.30;3.42;;;16.10;89.20;;;;;;5070342;28;20032;-79
2021/06/08 00:11:47;;;;;;;4.68;3.65;;;16.20;89.00;;;;;;5054274;28;20024;-79
2021/06/08 00:14:13;;;;;;;3.90;3.40;;;16.20;88.80;;;;;;5071402;28;20029;-78
2021/06/08 00:16:39;;;;;;;4.28;3.70;;;16.30;88.80;;;;;;5075737;28;20024;-78
2021/06/08 00:19:05;;;;;;;3.83;3.40;;;16.20;88.70;;;;;;5071501;28;20183;-81
2021/06/08 00:21:31;;;;;;;5.78;3.50;;;16.20;88.60;;;;;;5075298;28;20254;-79
2021/06/08 00:23:57;;;;;;;5.93;3.50;;;16.20;88.90;;;;;;5054606;28;20033;-80
2021/06/08 00:26:22;;;;;;;4.63;3.45;;;16.10;89.00;;;;;;5054497;28;20600;-80
2021/06/08 00:28:48;;;;;;;4.10;3.70;;;16.10;89.40;;;;;;5074407;28;20025;-79
2021/06/08 00:31:14;;;;;;;3.75;3.35;;;16.10;88.90;;;;;;5075130;28;20161;-80
2021/06/08 00:33:40;;;;;;;4.30;3.55;;;16.00;89.00;;;;;;5057332;28;20085;-80
2021/06/08 00:36:06;;;;;;;3.90;3.40;;;16.00;88.80;;;;;;5074334;28;20024;-79
2021/06/08 00:38:32;;;;;;;4.22;3.83;;;16.00;88.50;;;;;;5076350;28;20021;-82
2021/06/08 00:41:01;;;;;;;5.78;3.53;;;16.00;88.60;;;;;;5072375;28;20116;-79
2021/06/08 00:43:27;;;;;;;7.55;4.20;;;15.90;88.60;;;;;;5070487;28;20048;-80
2021/06/08 00:45:54;;;;;;;4.15;3.75;;;15.90;88.50;;;;;;5076161;28;20470;-79
2021/06/08 00:48:20;;;;;;;4.00;3.60;;;15.90;88.90;;;;;;5072041;28;20440;-80
2021/06/08 00:50:46;;;;;;;4.57;3.63;;;15.90;89.00;;;;;;5052975;28;20164;-79
2021/06/08 00:53:11;;;;;;;4.35;3.78;;;15.80;88.80;;;;;;5077254;28;20065;-79
2021/06/08 00:55:37;;;;;;;6.35;3.78;;;15.70;89.30;;;;;;5072470;28;20029;-80
2021/06/08 00:58:03;;;;;;;4.93;3.80;;;15.70;89.50;;;;;;5073643;28;20166;-81
2021/06/08 01:00:29;;;;;;;5.55;3.85;;;15.70;89.40;;;;;;5065076;28;20056;-80
2021/06/08 01:02:54;;;;;;;4.35;3.92;;;15.70;88.90;;;;;;5071978;28;20040;-80
2021/06/08 01:05:20;;;;;;;4.85;4.05;;;15.70;89.10;;;;;;5056890;28;20025;-81
2021/06/08 01:07:46;;;;;;;5.35;3.85;;;15.70;89.40;;;;;;5070614;28;20021;-79
2021/06/08 01:10:12;;;;;;;5.35;4.28;;;15.60;89.10;;;;;;5077202;28;20029;-82
2021/06/08 01:12:38;;;;;;;7.22;4.22;;;15.50;89.80;;;;;;5055197;28;20088;-80
2021/06/08 01:15:05;;;;;;;7.72;4.43;;;15.60;90.00;;;;;;5056907;28;20056;-79
2021/06/08 01:17:31;;;;;;;4.45;4.00;;;15.50;89.70;;;;;;5073314;28;20035;-79
2021/06/08 01:19:58;;;;;;;6.30;4.25;;;15.60;89.80;;;;;;5055417;28;20028;-81
2021/06/08 01:22:24;;;;;;;4.90;3.83;;;15.50;89.80;;;;;;5072422;28;20024;-81
2021/06/08 01:24:51;;;;;;;5.03;4.07;;;15.60;89.90;;;;;;5073128;28;20029;-81
2021/06/08 01:27:18;;;;;;;6.05;3.95;;;15.60;89.60;;;;;;5073841;28;20032;-79
2021/06/08 01:29:46;;;;;;;5.77;4.73;;;15.60;89.50;;;;;;5056799;28;20041;-79
2021/06/08 01:32:13;;;;;;;4.40;3.33;;;15.60;89.70;;;;;;5076888;28;20439;-81
2021/06/08 01:34:39;;;;;;;4.60;3.88;;;15.50;89.80;;;;;;5071842;28;21243;-82
2021/06/08 01:37:06;;;;;;;5.22;4.20;;;15.60;90.00;;;;;;5055280;28;20047;-80
2021/06/08 01:39:33;;;;;;;6.63;4.13;;;15.60;90.10;;;;;;5073781;28;20028;-81
2021/06/08 01:42:00;;;;;;;6.45;4.28;;;15.60;89.80;;;;;;5072116;28;20036;-81
2021/06/08 01:44:25;;;;;;;5.38;4.80;;;15.60;90.10;;;;;;5059356;28;20029;-80
2021/06/08 01:46:51;;;;;;;6.80;4.60;;;15.50;90.10;;;;;;5069790;28;20032;-81
2021/06/08 01:49:17;;;;;;;5.85;4.53;;;15.60;90.30;;;;;;5070568;28;20055;-81
2021/06/08 01:52:07;;;;;;;7.82;5.07;;;15.60;90.30;;;;;;5072959;28;20028;-80
2021/06/08 01:55:10;;;;;;;7.25;4.82;;;15.60;90.30;;;;;;5050174;28;20028;-79
2021/06/08 01:57:55;;;;;;;6.35;5.03;;;15.50;90.60;;;;;;5050639;28;20475;-82
2021/06/08 02:00:43;;;;;;;6.13;5.05;;;15.50;90.40;;;;;;5074840;28;20498;-82
2021/06/08 02:03:40;;;;;;;5.38;4.53;;;15.50;90.60;;;;;;5070483;28;20432;-80
2021/06/08 02:06:21;;;;;;;6.07;4.47;;;15.50;90.50;;;;;;5037659;28;20092;-81
2021/06/08 02:08:51;;;;;;;10.35;5.10;;;15.50;90.30;;;;;;5073117;28;20028;-81
2021/06/08 02:11:33;;;;;;;5.63;4.82;;;15.50;90.40;;;;;;5073770;28;20020;-79
2021/06/08 02:14:05;;;;;;;5.32;4.82;;;15.50;90.10;;;;;;5073068;28;20032;-81
2021/06/08 02:16:35;;;;;;;6.65;4.60;;;15.50;90.10;;;;;;5058328;28;20036;-80
2021/06/08 02:19:01;;;;;;;7.30;4.82;;;15.50;90.30;;;;;;5073674;28;20036;-81
2021/06/08 02:21:31;;;;;;;5.88;4.25;;;15.50;90.20;;;;;;5056862;28;22207;-79
2021/06/08 02:24:00;;;;;;;6.32;4.80;;;15.40;90.30;;;;;;5073025;28;20103;-81
2021/06/08 02:26:27;;;;;;;6.90;4.70;;;15.40;90.20;;;;;;5079127;28;20021;-79
2021/06/08 02:28:55;;;;;;;6.63;4.80;;;15.40;90.10;;;;;;5073441;28;20025;-79
2021/06/08 02:31:22;;;;;;;5.55;4.07;;;15.40;90.10;;;;;;5077060;28;20047;-79
2021/06/08 02:33:50;;;;;;;6.25;4.68;;;15.30;90.20;;;;;;5074860;28;20029;-81
2021/06/08 02:36:16;;;;;;;;;;;15.20;90.10;;;;;;5052999;28;20029;-82
2021/06/08 02:38:44;;;;;;;8.35;4.65;;;15.10;90.30;;;;;;5053357;28;20827;-81
2021/06/08 02:41:11;;;;;;;5.35;4.45;;;15.10;90.10;;;;;;5051863;28;20573;-80
2021/06/08 02:43:38;;;;;;;7.40;5.18;;;15.10;90.00;;;;;;5055460;28;20085;-80
2021/06/08 02:46:06;;;;;;;7.53;5.03;;;15.00;90.40;;;;;;5073992;28;20510;-81
2021/06/08 02:48:34;;;;;;;6.63;4.80;;;15.00;90.40;;;;;;5071804;28;20035;-83
2021/06/08 02:51:01;;;;;;;6.75;4.88;;;14.90;90.60;;;;;;5073037;28;20035;-79
2021/06/08 02:53:28;;;;;;;6.63;4.80;;;15.00;90.40;;;;;;5070683;28;20035;-81
2021/06/08 02:55:54;;;;;;;6.82;5.18;;;14.90;90.40;;;;;;5072424;28;20037;-80
2021/06/08 02:58:22;;;;;;;8.05;4.70;;;14.80;90.70;;;;;;5073527;28;20110;-82
2021/06/08 03:00:49;;;;;;;6.25;4.65;;;14.80;90.70;;;;;;5071216;28;20049;-80
2021/06/08 03:03:21;;;;;;;9.10;5.22;;;14.80;90.60;;;;;;5071227;28;20119;-80
2021/06/08 03:06:00;;;;;;;7.20;4.93;;;14.90;90.60;;;;;;5053412;28;20020;-80
2021/06/08 03:08:35;;;;;;;8.10;5.10;;;14.90;90.80;;;;;;5055390;28;20016;-80
2021/06/08 03:11:06;;;;;;;6.70;4.63;;;14.90;90.70;;;;;;5077478;28;20066;-78
2021/06/08 03:13:34;;;;;;;7.13;4.65;;;14.90;90.70;;;;;;5063901;28;20455;-79
2021/06/08 03:16:01;;;;;;;8.55;5.60;;;14.80;90.80;;;;;;5076298;28;20629;-80
2021/06/08 03:18:30;;;;;;;26.65;6.90;;;14.80;91.10;;;;;;5074682;28;20028;-81
2021/06/08 03:21:13;;;;;;;14.55;6.50;;;14.90;91.40;;;;;;5053329;28;20032;-81
2021/06/08 03:23:43;;;;;;;16.13;7.13;;;15.00;91.20;;;;;;5070427;28;20534;-81
2021/06/08 03:26:10;;;;;;;28.42;7.97;;;15.00;91.30;;;;;;5072799;28;20029;-80
2021/06/08 03:28:38;;;;;;;60.20;10.43;;;15.00;91.50;;;;;;5073625;28;20709;-80
2021/06/08 03:31:04;;;;;;;22.33;7.75;;;15.00;91.60;;;;;;5073099;28;20056;-78
2021/06/08 03:33:32;;;;;;;18.65;7.55;;;15.10;91.80;;;;;;5076119;28;20063;-78
2021/06/08 03:35:58;;;;;;;11.93;7.90;;;15.10;91.80;;;;;;5052596;28;20036;-80
2021/06/08 03:38:25;;;;;;;32.03;8.52;;;15.10;91.50;;;;;;5073223;28;20058;-80
2021/06/08 03:40:52;;;;;;;32.20;10.02;;;15.10;91.90;;;;;;5070171;28;20133;-80
2021/06/08 03:43:19;;;;;;;33.03;8.90;;;15.20;91.90;;;;;;5056890;28;20131;-80
2021/06/08 03:45:49;;;;;;;31.25;9.23;;;15.20;92.00;;;;;;5073159;28;20119;-78
2021/06/08 03:48:19;;;;;;;57.45;12.55;;;15.20;91.90;;;;;;5055439;28;20082;-79
2021/06/08 03:50:45;;;;;;;22.15;8.80;;;15.20;92.00;;;;;;5070516;28;20021;-81
2021/06/08 03:53:11;;;;;;;16.13;8.75;;;15.20;91.90;;;;;;5070717;28;20389;-80
2021/06/08 03:55:38;;;;;;;67.20;11.40;;;15.20;92.20;;;;;;5076351;28;20191;-80
2021/06/08 03:58:11;;;;;;;33.03;10.75;;;15.30;92.10;;;;;;5068697;28;20040;-80
2021/06/08 04:00:37;;;;;;;16.02;8.88;;;15.30;92.10;;;;;;5067567;28;20062;-78
2021/06/08 04:03:04;;;;;;;21.35;9.10;;;15.30;92.00;;;;;;5052856;28;20028;-81
2021/06/08 04:05:30;;;;;;;20.38;9.27;;;15.30;92.00;;;;;;5053779;28;20071;-79
2021/06/08 04:07:56;;;;;;;62.25;11.00;;;15.30;92.20;;;;;;5068014;28;20029;-81
2021/06/08 04:10:22;;;;;;;17.23;8.93;;;15.30;92.10;;;;;;5068660;28;20029;-80
2021/06/08 04:12:49;;;;;;;20.15;9.18;;;15.30;92.10;;;;;;5069667;28;20059;-80
2021/06/08 04:15:16;;;;;;;75.20;12.23;;;15.30;92.00;;;;;;5076827;28;20107;-82
2021/06/08 04:17:42;;;;;;;57.72;10.57;;;15.30;91.90;;;;;;5069756;28;20016;-79
2021/06/08 04:20:10;;;;;;;25.40;9.68;;;15.30;92.00;;;;;;5073771;28;20029;-79
2021/06/08 04:22:37;;;;;;;16.15;10.10;;;15.30;92.00;;;;;;5072658;28;20044;-79
2021/06/08 04:25:05;;;;;;;32.25;10.45;;;15.40;91.90;;;;;;5075746;28;20048;-80
2021/06/08 04:27:31;;;;;;;33.70;10.32;;;15.40;92.30;;;;;;5076465;28;20028;-81
2021/06/08 04:29:58;;;;;;;23.27;10.52;;;15.40;92.20;;;;;;5074361;28;20039;-81
2021/06/08 04:32:24;;;;;;;45.13;11.43;;;15.40;92.10;;;;;;5071559;28;21408;-80
2021/06/08 04:34:55;;;;;;;61.35;10.88;;;15.50;92.10;;;;;;5067793;28;20055;-81
2021/06/08 04:37:21;;;;;;;16.25;10.40;;;15.50;91.80;;;;;;5073358;28;20481;-80
2021/06/08 04:39:48;;;;;;;19.30;9.45;;;15.50;91.80;;;;;;5073210;28;20067;-80
2021/06/08 04:42:15;;;;;;;14.73;10.05;;;15.50;91.80;;;;;;5052539;28;20032;-80
2021/06/08 04:44:46;;;;;;;17.58;9.55;;;15.50;91.70;;;;;;5048964;28;20893;-82
2021/06/08 04:47:14;;;;;;;19.08;9.68;;;15.50;91.70;;;;;;5069723;28;20024;-80
2021/06/08 04:49:40;;;;;;;35.75;12.80;;;15.60;91.70;;;;;;5052968;28;20036;-80
2021/06/08 04:52:07;;;;;;;26.60;9.90;;;15.60;91.80;;;;;;5074522;28;20029;-81
2021/06/08 04:54:34;;;;;;;16.00;9.38;;;15.60;91.80;;;;;;5071711;28;20024;-81
2021/06/08 04:57:02;;;;;;;15.77;9.65;;;15.60;91.80;;;;;;5076208;28;20025;-80
2021/06/08 04:59:48;;;;;;;15.35;10.63;;;15.60;91.90;;;;;;5074324;28;20051;-80
2021/06/08 05:02:25;;;;;;;31.55;10.68;;;15.70;91.70;;;;;;5069907;28;20052;-80
2021/06/08 05:04:53;;;;;;;19.33;10.50;;;15.70;91.80;;;;;;5052976;28;20029;-80
2021/06/08 05:07:21;;;;;;;31.27;9.88;;;15.70;91.60;;;;;;5072808;28;20031;-80
2021/06/08 05:09:49;;;;;;;53.60;10.90;;;15.80;91.60;;;;;;5073660;28;20052;-79
2021/06/08 05:12:20;;;;;;;28.08;10.38;;;15.80;91.70;;;;;;5073545;28;20080;-80
2021/06/08 05:14:49;;;;;;;14.77;9.52;;;15.80;91.50;;;;;;5075064;28;20028;-81
2021/06/08 05:17:19;;;;;;;18.40;10.82;;;15.80;91.60;;;;;;5071526;28;20364;-80
2021/06/08 05:19:47;;;;;;;19.75;10.13;;;15.80;91.80;;;;;;5055709;28;20024;-82
2021/06/08 05:22:14;;;;;;;17.77;11.48;;;15.80;91.60;;;;;;5073520;28;20024;-81
2021/06/08 05:24:40;;;;;;;17.33;11.57;;;15.80;91.70;;;;;;5073675;28;20025;-80
2021/06/08 05:27:09;;;;;;;16.38;11.27;;;15.80;91.70;;;;;;5055678;28;20020;-80
2021/06/08 05:29:35;;;;;;;19.70;11.82;;;15.90;91.90;;;;;;5073646;28;20027;-81
2021/06/08 05:32:01;;;;;;;22.27;12.20;;;15.90;91.80;;;;;;5073248;28;20115;-81
2021/06/08 05:34:27;;;;;;;19.35;12.25;;;15.90;91.90;;;;;;5073798;28;20059;-80
2021/06/08 05:36:53;;;;;;;23.00;13.00;;;16.00;91.90;;;;;;5068283;28;20028;-80
2021/06/08 05:39:18;;;;;;;21.20;12.75;;;16.00;91.80;;;;;;5073888;28;20024;-81
2021/06/08 05:41:44;;;;;;;23.23;13.98;;;16.10;91.90;;;;;;5074141;28;20028;-81
2021/06/08 05:44:11;;;;;;;20.75;12.20;;;16.10;91.80;;;;;;5072139;28;20637;-79
2021/06/08 05:46:37;;;;;;;20.60;12.70;;;16.10;91.90;;;;;;5074481;28;20021;-81
2021/06/08 05:49:07;;;;;;;22.58;12.88;;;16.20;91.90;;;;;;5073762;28;20065;-81
2021/06/08 05:51:34;;;;;;;21.58;13.00;;;16.20;91.60;;;;;;5073831;28;20021;-83
2021/06/08 05:54:01;;;;;;;22.83;13.93;;;16.20;91.60;;;;;;5073835;28;20501;-81
2021/06/08 05:56:32;;;;;;;21.27;13.10;;;16.30;91.60;;;;;;5073827;28;20020;-81
2021/06/08 05:58:58;;;;;;;22.55;13.63;;;16.40;91.60;;;;;;5074365;28;20037;-80
2021/06/08 06:01:26;;;;;;;26.20;14.52;;;16.40;91.40;;;;;;5055083;28;20037;-80
2021/06/08 06:03:52;;;;;;;24.85;14.68;;;16.40;91.50;;;;;;5070872;28;20048;-81
2021/06/08 06:06:18;;;;;;;28.42;15.57;;;16.40;91.40;;;;;;5073339;28;20029;-81
2021/06/08 06:08:45;;;;;;;24.48;15.02;;;16.50;91.30;;;;;;5055434;28;20029;-79
2021/06/08 06:11:13;;;;;;;25.33;14.98;;;16.40;91.40;;;;;;5073867;28;20539;-81
2021/06/08 06:13:47;;;;;;;26.02;15.23;;;16.50;91.40;;;;;;5073273;28;20021;-80
2021/06/08 06:16:16;;;;;;;24.23;14.48;;;16.50;91.50;;;;;;5055503;28;20032;-80
2021/06/08 06:18:42;;;;;;;25.17;15.38;;;16.60;91.50;;;;;;5073801;28;20027;-81
2021/06/08 06:21:08;;;;;;;25.10;15.68;;;16.60;91.20;;;;;;5072625;28;20033;-80
2021/06/08 06:23:34;;;;;;;28.15;16.35;;;16.60;91.00;;;;;;5038942;28;20029;-80
2021/06/08 06:26:00;;;;;;;28.08;16.23;;;16.60;90.90;;;;;;5065182;28;20021;-79
2021/06/08 06:28:26;;;;;;;26.30;16.48;;;16.60;90.80;;;;;;5066914;28;20036;-80
2021/06/08 06:30:53;;;;;;;26.90;15.77;;;16.70;91.00;;;;;;5052191;28;20341;-80
2021/06/08 06:33:21;;;;;;;29.88;16.88;;;16.70;90.60;;;;;;5068060;28;20024;-80
2021/06/08 06:35:47;;;;;;;24.42;15.75;;;16.80;91.00;;;;;;5073180;28;20027;-80
2021/06/08 06:38:14;;;;;;;29.00;16.60;;;16.80;90.60;;;;;;5073556;28;20115;-80
2021/06/08 06:40:42;;;;;;;22.85;15.27;;;16.80;90.70;;;;;;5072959;28;20017;-81
2021/06/08 06:43:15;;;;;;;26.58;16.92;;;16.80;90.20;;;;;;5077405;28;20016;-80
2021/06/08 06:45:41;;;;;;;27.95;16.15;;;16.90;90.20;;;;;;5072605;28;20017;-81
2021/06/08 06:48:12;;;;;;;27.55;16.38;;;16.90;90.10;;;;;;5073208;28;20021;-81
2021/06/08 06:50:39;;;;;;;27.75;17.00;;;16.90;89.80;;;;;;5073494;28;20111;-81
2021/06/08 06:53:06;;;;;;;29.35;17.20;;;17.00;90.00;;;;;;5073343;28;20471;-81
2021/06/08 06:55:32;;;;;;;26.98;17.25;;;17.10;89.90;;;;;;5074826;28;20029;-80
2021/06/08 06:57:59;;;;;;;29.15;16.30;;;17.10;89.60;;;;;;5065543;28;20093;-80
2021/06/08 07:00:26;;;;;;;24.95;16.52;;;17.10;90.00;;;;;;5069526;28;20024;-81
2021/06/08 07:02:54;;;;;;;24.40;15.82;;;17.20;89.90;;;;;;5096504;28;20086;-80
2021/06/08 07:05:24;;;;;;;26.38;16.60;;;17.40;89.60;;;;;;5097000;28;20016;-81
2021/06/08 07:07:51;;;;;;;25.55;15.98;;;17.40;89.00;;;;;;5097073;28;20077;-81
2021/06/08 07:10:20;;;;;;;28.55;17.80;;;17.40;88.90;;;;;;5096620;28;20024;-81
2021/06/08 07:12:47;;;;;;;27.60;17.80;;;17.50;88.90;;;;;;5096757;28;20050;-82
2021/06/08 07:15:15;;;;;;;26.33;16.90;;;17.50;87.90;;;;;;5096861;28;20035;-80
2021/06/08 07:17:41;;;;;;;27.25;17.80;;;17.60;88.20;;;;;;5097207;28;20016;-79
2021/06/08 07:20:10;;;;;;;30.98;18.77;;;17.60;89.30;;;;;;5080024;28;20078;-80
2021/06/08 07:22:39;;;;;;;29.33;18.30;;;17.60;87.70;;;;;;5073951;28;20337;-81
2021/06/08 07:25:07;;;;;;;29.35;17.85;;;17.70;87.50;;;;;;5058393;28;20036;-81
2021/06/08 07:27:33;;;;;;;30.15;18.27;;;17.70;87.50;;;;;;5075160;28;20009;-80
2021/06/08 07:29:59;;;;;;;31.50;19.05;;;17.70;87.10;;;;;;5038567;28;20029;-79
2021/06/08 07:32:43;;;;;;;27.08;17.45;;;17.70;87.60;;;;;;5058142;28;20060;-80
2021/06/08 07:35:08;;;;;;;29.65;18.13;;;17.80;87.60;;;;;;5072612;28;20040;-80
2021/06/08 07:37:39;;;;;;;27.67;18.00;;;18.00;87.10;;;;;;5077031;28;20025;-81
2021/06/08 07:40:09;;;;;;;26.38;18.05;;;18.10;87.20;;;;;;5077533;28;20021;-79
2021/06/08 07:42:42;;;;;;;25.65;18.00;;;18.20;85.40;;;;;;5070538;28;20115;-80
2021/06/08 07:45:11;;;;;;;27.90;17.20;;;18.20;86.30;;;;;;5076825;28;20030;-79
2021/06/08 07:47:40;;;;;;;27.67;18.17;;;18.40;85.30;;;;;;5066507;28;20112;-81
2021/06/08 07:50:10;;;;;;;26.42;18.50;;;18.50;84.80;;;;;;5084220;28;20038;-80
2021/06/08 07:52:36;;;;;;;26.92;17.58;;;18.50;83.20;;;;;;5069447;28;20044;-79
2021/06/08 07:55:05;;;;;;;28.73;18.17;;;18.50;83.60;;;;;;5066285;28;20127;-82
2021/06/08 07:57:31;;;;;;;28.33;18.67;;;18.60;84.60;;;;;;5066858;28;20036;-81
2021/06/08 07:59:57;;;;;;;30.27;19.13;;;18.70;85.40;;;;;;5045604;28;20364;-84
2021/06/08 08:02:24;;;;;;;27.85;19.58;;;18.60;84.30;;;;;;5049070;28;20415;-79
2021/06/08 08:04:51;;;;;;;25.88;18.60;;;18.70;85.30;;;;;;5065670;28;20475;-80
2021/06/08 08:07:25;;;;;;;31.48;20.33;;;18.80;83.60;;;;;;5070298;28;20021;-82
2021/06/08 08:09:54;;;;;;;31.88;20.35;;;19.00;85.10;;;;;;5069135;28;20032;-81
2021/06/08 08:12:22;;;;;;;28.45;20.15;;;19.00;81.70;;;;;;5049941;28;20107;-83
2021/06/08 08:14:48;;;;;;;29.95;19.65;;;19.10;82.10;;;;;;5065724;28;20382;-82
2021/06/08 08:17:15;;;;;;;26.58;18.90;;;19.20;80.30;;;;;;5068408;28;20032;-80
2021/06/08 08:19:42;;;;;;;33.17;21.10;;;19.30;79.60;;;;;;5068683;28;20099;-80
2021/06/08 08:22:08;;;;;;;28.25;20.65;;;19.30;81.00;;;;;;5074353;28;20023;-81
2021/06/08 08:24:34;;;;;;;28.42;19.33;;;19.30;82.20;;;;;;5071476;28;20032;-80
2021/06/08 08:27:03;;;;;;;26.83;18.40;;;19.40;80.80;;;;;;5072275;28;20058;-81
2021/06/08 08:29:28;;;;;;;29.38;19.65;;;19.60;80.80;;;;;;5066142;28;20012;-79
2021/06/08 08:31:54;;;;;;;27.88;19.40;;;19.70;81.10;;;;;;5075967;28;20086;-80
2021/06/08 08:34:20;;;;;;;28.73;20.27;;;19.90;80.40;;;;;;5067565;28;20068;-81
2021/06/08 08:36:46;;;;;;;28.83;19.08;;;19.90;81.30;;;;;;5080339;28;20056;-81
2021/06/08 08:39:12;;;;;;;29.40;20.05;;;19.90;79.00;;;;;;5064854;28;20631;-81
2021/06/08 08:41:40;;;;;;;30.85;21.15;;;19.80;78.40;;;;;;5068426;28;20129;-82
2021/06/08 08:44:07;;;;;;;29.70;20.00;;;19.80;79.70;;;;;;5043217;28;20025;-80
2021/06/08 08:46:33;;;;;;;28.40;19.63;;;19.80;77.90;;;;;;5073742;28;20107;-79
2021/06/08 08:48:59;;;;;;;26.25;19.38;;;19.90;79.70;;;;;;5068533;28;20475;-80
2021/06/08 08:51:27;;;;;;;28.55;19.55;;;19.90;77.80;;;;;;5072821;28;20145;-80
2021/06/08 08:53:55;;;;;;;27.83;20.13;;;20.00;78.60;;;;;;5064451;28;20436;-81
2021/06/08 08:56:25;;;;;;;24.35;17.30;;;20.10;78.80;;;;;;5069877;28;20063;-79
2021/06/08 08:58:52;;;;;;;28.73;19.40;;;20.10;77.60;;;;;;5074281;28;20040;-78
2021/06/08 09:01:18;;;;;;;26.58;17.98;;;20.20;77.50;;;;;;5074793;28;20491;-79
2021/06/08 09:03:44;;;;;;;26.35;19.08;;;20.30;77.90;;;;;;5074726;28;20020;-80
2021/06/08 09:06:12;;;;;;;25.98;19.17;;;20.30;78.80;;;;;;5074140;28;20451;-80
2021/06/08 09:08:39;;;;;;;24.58;19.17;;;20.40;76.50;;;;;;5075407;28;20031;-81
2021/06/08 09:11:07;;;;;;;28.10;19.48;;;20.40;77.10;;;;;;5065747;28;20025;-82
2021/06/08 09:13:33;;;;;;;30.10;20.98;;;20.40;75.40;;;;;;5063271;28;20078;-81
2021/06/08 09:15:58;;;;;;;27.17;20.02;;;20.50;77.70;;;;;;5072343;28;20542;-81
2021/06/08 09:18:24;;;;;;;30.00;20.48;;;20.60;76.10;;;;;;5067767;28;20032;-82
2021/06/08 09:20:52;;;;;;;28.13;20.50;;;20.70;76.50;;;;;;5065949;28;20561;-81
2021/06/08 09:23:24;;;;;;;31.00;20.85;;;20.70;74.60;;;;;;5050142;28;20089;-81
2021/06/08 09:25:52;;;;;;;27.25;20.05;;;20.80;75.50;;;;;;5065544;28;20033;-82
2021/06/08 09:28:34;;;;;;;29.02;19.45;;;20.80;74.90;;;;;;5052809;28;20028;-81
2021/06/08 09:31:09;;;;;;;28.98;20.40;;;20.80;74.60;;;;;;5062625;28;20453;-81
2021/06/08 09:33:38;;;;;;;27.05;19.85;;;20.80;74.60;;;;;;5065610;28;20020;-82
2021/06/08 09:36:15;;;;;;;27.83;20.77;;;20.90;74.90;;;;;;5046215;28;20025;-81
2021/06/08 09:38:40;;;;;;;27.07;19.83;;;20.90;76.10;;;;;;5060326;28;20094;-82
2021/06/08 09:41:31;;;;;;;28.70;19.88;;;20.90;75.80;;;;;;5053083;28;20029;-82
2021/06/08 09:44:18;;;;;;;27.45;19.83;;;21.00;74.80;;;;;;5054603;28;20040;-82
2021/06/08 09:46:49;;;;;;;27.05;19.70;;;21.00;76.50;;;;;;5067274;28;20047;-82
2021/06/08 09:49:32;;;;;;;27.13;18.85;;;21.10;75.20;;;;;;5072323;28;20021;-81
2021/06/08 09:51:59;;;;;;;26.35;19.50;;;21.10;75.00;;;;;;5067868;28;20408;-82
2021/06/08 09:54:38;;;;;;;26.80;19.73;;;21.00;76.10;;;;;;5065005;28;20278;-82
2021/06/08 09:57:27;;;;;;;29.65;20.63;;;21.10;75.60;;;;;;5062850;28;20047;-82
2021/06/08 09:59:58;;;;;;;29.05;19.77;;;21.20;76.50;;;;;;5065419;28;20028;-82
2021/06/08 10:02:24;;;;;;;25.85;19.33;;;21.30;76.90;;;;;;5052216;28;20036;-82
2021/06/08 10:04:52;;;;;;;25.50;18.65;;;21.40;75.00;;;;;;5067911;28;20025;-82
2021/06/08 10:07:29;;;;;;;26.85;19.60;;;21.50;73.90;;;;;;5048545;28;20025;-82
2021/06/08 10:10:07;;;;;;;23.50;17.63;;;21.60;75.10;;;;;;5065256;28;20055;-80
2021/06/08 10:12:33;;;;;;;;;;;21.50;73.60;;;;;;5066616;28;20020;-81
2021/06/08 10:15:10;;;;;;;26.17;17.85;;;21.60;73.30;;;;;;5067607;28;19916;-81
2021/06/08 10:17:38;;;;;;;22.38;17.95;;;21.60;73.00;;;;;;5045176;28;20123;-81
2021/06/08 10:20:39;;;;;;;25.77;18.23;;;21.60;73.50;;;;;;5052571;28;20090;-82
2021/06/08 10:23:33;;;;;;;21.75;17.58;;;21.60;73.00;;;;;;5031941;28;20101;-82
2021/06/08 10:26:02;;;;;;;24.88;17.75;;;21.60;73.70;;;;;;5065207;28;20037;-81
2021/06/08 10:28:29;;;;;;;25.50;18.63;;;21.60;73.70;;;;;;5065086;28;20045;-81
2021/06/08 10:30:56;;;;;;;24.05;18.92;;;21.70;73.90;;;;;;5068613;28;20032;-81
2021/06/08 10:33:24;;;;;;;24.48;18.40;;;21.80;73.90;;;;;;5068906;28;20028;-81
2021/06/08 10:35:52;;;;;;;23.55;18.15;;;21.80;74.60;;;;;;5072709;28;20501;-81
2021/06/08 10:38:18;;;;;;;23.92;19.13;;;21.90;73.30;;;;;;5071021;28;20032;-82
2021/06/08 10:40:48;;;;;;;23.08;16.80;;;22.10;75.30;;;;;;5071682;28;20047;-81
2021/06/08 10:43:28;;;;;;;25.10;19.08;;;22.20;71.60;;;;;;5053863;28;20029;-82
2021/06/08 10:45:56;;;;;;;23.60;17.10;;;22.20;71.60;;;;;;5069628;28;20055;-81
2021/06/08 10:48:37;;;;;;;19.98;15.55;;;22.30;72.50;;;;;;5054141;28;20121;-82
2021/06/08 10:51:12;;;;;;;21.33;17.40;;;22.40;69.00;;;;;;5067529;28;20108;-81
2021/06/08 10:53:45;;;;;;;26.77;18.33;;;22.50;71.90;;;;;;5067754;28;20035;-81
2021/06/08 10:56:29;;;;;;;22.10;17.58;;;22.50;71.30;;;;;;5071039;28;20073;-81
2021/06/08 10:59:02;;;;;;;23.27;16.25;;;22.50;70.00;;;;;;5070183;28;20039;-81
2021/06/08 11:01:35;;;;;;;21.00;15.63;;;22.60;70.50;;;;;;5069886;28;20508;-83
2021/06/08 11:04:17;;;;;;;19.65;15.75;;;22.60;68.50;;;;;;5070761;28;20025;-82
2021/06/08 11:07:10;;;;;;;20.67;15.80;;;22.60;68.30;;;;;;5049025;28;20044;-81
2021/06/08 11:09:37;;;;;;;19.27;15.05;;;22.70;67.50;;;;;;5063636;28;20059;-81
2021/06/08 11:12:08;;;;;;;21.30;15.93;;;22.60;67.70;;;;;;5068948;28;20031;-82
2021/06/08 11:17:07;;;;;;;17.45;14.90;;;22.60;67.20;;;;;;5070138;28;20039;-81
2021/06/08 11:19:45;;;;;;;20.52;13.95;;;22.60;65.50;;;;;;5067771;28;20050;-82
2021/06/08 11:22:16;;;;;;;20.02;15.18;;;22.60;65.00;;;;;;5064315;28;20037;-82
2021/06/08 11:24:45;;;;;;;18.67;14.93;;;22.60;63.10;;;;;;5061558;28;20096;-81
2021/06/08 11:27:11;;;;;;;21.95;15.15;;;22.80;66.10;;;;;;5065743;28;20175;-81
2021/06/08 11:29:54;;;;;;;17.23;14.30;;;22.90;65.50;;;;;;5069791;28;20060;-81
2021/06/08 11:32:29;;;;;;;17.55;13.95;;;22.90;65.50;;;;;;5052078;28;20033;-81
2021/06/08 11:35:23;;;;;;;18.00;13.15;;;22.90;64.00;;;;;;5070320;28;20031;-80
2021/06/08 11:37:57;;;;;;;18.23;14.90;;;22.90;63.90;;;;;;5046355;28;20044;-81
2021/06/08 11:40:35;;;;;;;16.85;14.10;;;23.00;66.60;;;;;;5070872;28;20016;-81
2021/06/08 11:43:29;;;;;;;17.77;14.75;;;23.00;64.10;;;;;;5070299;28;20033;-83
2021/06/08 11:46:05;;;;;;;16.52;12.88;;;23.10;65.70;;;;;;5044520;28;20029;-81
2021/06/08 11:48:36;;;;;;;15.60;12.68;;;23.10;63.90;;;;;;5049231;28;20036;-81
2021/06/08 11:51:22;;;;;;;17.05;13.25;;;23.00;61.40;;;;;;5067342;28;20070;-83
2021/06/08 11:54:11;;;;;;;15.15;11.70;;;23.00;63.00;;;;;;5071225;28;20067;-81
2021/06/08 11:56:46;;;;;;;16.85;12.30;;;23.10;60.70;;;;;;5072194;28;20029;-82
2021/06/08 11:59:13;;;;;;;14.70;13.15;;;23.20;62.20;;;;;;5072572;28;20086;-81
2021/06/08 12:01:42;;;;;;;16.08;12.27;;;23.30;62.60;;;;;;5061325;28;20157;-81
2021/06/08 12:04:08;;;;;;;13.90;10.15;;;23.30;61.70;;;;;;5067475;28;20059;-81
2021/06/08 12:07:03;;;;;;;12.18;9.68;;;23.30;60.00;;;;;;5068675;28;20036;-82
2021/06/08 12:09:37;;;;;;;12.73;11.35;;;23.30;58.40;;;;;;5066593;28;20032;-82
2021/06/08 12:12:10;;;;;;;15.30;11.18;;;23.20;60.40;;;;;;5071712;28;20029;-81
2021/06/08 12:14:44;;;;;;;11.02;9.80;;;23.10;61.50;;;;;;5073183;28;20048;-82
2021/06/08 12:17:10;;;;;;;14.05;11.50;;;23.40;57.60;;;;;;5077111;28;20025;-80
2021/06/08 12:19:36;;;;;;;14.77;11.55;;;23.70;59.10;;;;;;5071737;28;20046;-81
2021/06/08 12:22:17;;;;;;;15.27;12.60;;;23.70;59.00;;;;;;5054621;28;20024;-81
2021/06/08 12:25:02;;;;;;;16.40;11.73;;;23.80;61.00;;;;;;5072203;28;20117;-81
2021/06/08 12:27:41;;;;;;;12.63;11.20;;;23.90;60.60;;;;;;5076688;28;20020;-81
2021/06/08 12:30:14;;;;;;;15.15;11.93;;;23.90;58.00;;;;;;5068706;28;20068;-82
2021/06/08 12:32:41;;;;;;;15.73;12.30;;;23.70;58.50;;;;;;5055912;28;20028;-78
2021/06/08 12:35:20;;;;;;;12.77;10.25;;;23.70;58.70;;;;;;5048900;28;20032;-78
2021/06/08 12:37:46;;;;;;;13.95;11.10;;;23.60;56.60;;;;;;5051852;28;20032;-78
2021/06/08 12:40:16;;;;;;;11.80;10.50;;;23.60;56.60;;;;;;5050152;28;20029;-78
2021/06/08 12:42:41;;;;;;;12.43;10.57;;;23.60;57.20;;;;;;5067134;28;20132;-78
2021/06/08 12:45:07;;;;;;;12.75;10.00;;;23.50;58.50;;;;;;5064901;28;20776;-78
2021/06/08 12:47:34;;;;;;;12.40;10.80;;;23.50;57.90;;;;;;5047368;28;20029;-78
2021/06/08 12:50:07;;;;;;;10.77;8.77;;;23.50;58.70;;;;;;5063554;28;20031;-78